Time;durP1;ratioP1;P1;durP2;ratioP2;P2;SDS_P1;SDS_P2;PMS_P1;PMS_P2;Temp;Humidity;BMP_temperature;BMP_pressure;BME280_temperature;BME280_humidity;BME280_pressure;Samples;Min_cycle;Max_cycle;Signal;HPM_P1;HPM_P2
2022/07/09 00:00:16;;;;;;;;;4.33;4.33;;;;;23.15;42.64;102556.63;5008900;28;47407;-78
2022/07/09 00:02:44;;;;;;;;;5.00;5.00;;;;;23.14;42.69;102548.59;5014775;28;45495;-80
2022/07/09 00:05:13;;;;;;;;;5.33;5.33;;;;;23.14;42.94;102562.91;5020191;28;45263;-80
2022/07/09 00:07:41;;;;;;;;;4.75;4.50;;;;;23.17;42.82;102553.88;5021924;28;45381;-82
2022/07/09 00:10:07;;;;;;;;;5.00;5.00;;;;;23.13;42.95;102555.78;5036347;28;47299;-78
2022/07/09 00:12:35;;;;;;;;;5.00;3.67;;;;;23.09;43.28;102546.94;5021244;28;45314;-78
2022/07/09 00:15:00;;;;;;;;;4.33;4.00;;;;;23.11;43.55;102554.94;5018567;28;45702;-76
2022/07/09 00:17:26;;;;;;;;;4.00;4.00;;;;;23.06;43.10;102552.38;5019109;28;45354;-78
2022/07/09 00:19:53;;;;;;;;;4.00;4.00;;;;;23.05;43.58;102544.38;5015964;28;46079;-78
2022/07/09 00:22:31;;;;;;;;;5.00;5.00;;;;;23.06;43.18;102546.13;5020208;28;45328;-78
2022/07/09 00:24:57;;;;;;;;;6.00;4.67;;;;;23.06;43.51;102556.84;5020520;28;45329;-78
2022/07/09 00:27:24;;;;;;;;;5.33;5.33;;;;;22.99;43.31;102548.09;5020959;28;45342;-78
2022/07/09 00:29:52;;;;;;;;;7.33;6.33;;;;;22.99;43.76;102544.50;5018398;28;46558;-77
2022/07/09 00:32:18;;;;;;;;;6.33;6.33;;;;;22.96;43.69;102537.44;5018407;28;45769;-78
2022/07/09 00:34:43;;;;;;;;;3.33;3.33;;;;;22.96;43.65;102542.81;5018688;28;45702;-78
2022/07/09 00:37:11;;;;;;;;;6.00;6.00;;;;;22.93;43.82;102537.47;5017045;28;45550;-77
2022/07/09 00:39:39;;;;;;;;;4.67;4.00;;;;;22.92;43.81;102537.53;5018428;28;45668;-78
2022/07/09 00:42:15;;;;;;;;;5.00;4.00;;;;;22.91;43.66;102542.03;5018763;28;45389;-78
2022/07/09 00:44:41;;;;;;;;;4.67;4.67;;;;;22.93;44.01;102544.66;5017673;28;45721;-78
2022/07/09 00:47:10;;;;;;;;;4.00;4.00;;;;;22.90;44.44;102542.91;5019335;28;45409;-78
2022/07/09 00:49:40;;;;;;;;;5.00;5.00;;;;;22.92;44.19;102541.09;5020367;28;46190;-78
2022/07/09 00:52:08;;;;;;;;;5.00;5.00;;;;;22.94;44.00;102546.44;5035107;28;45280;-78
2022/07/09 00:54:35;;;;;;;;;6.00;6.00;;;;;22.87;43.91;102543.88;5019063;28;45422;-78
2022/07/09 00:57:06;;;;;;;;;5.33;5.00;;;;;22.85;44.27;102539.47;5020396;28;45387;-78
2022/07/09 00:59:33;;;;;;;;;3.67;3.67;;;;;22.80;43.73;102531.56;5007736;28;45467;-78
2022/07/09 01:02:00;;;;;;;;;3.33;3.33;;;;;22.84;44.30;102543.09;5020317;28;45322;-78
2022/07/09 01:04:28;;;;;;;;;6.33;5.33;;;;;22.77;44.15;102536.97;5019201;28;45427;-78
2022/07/09 01:06:53;;;;;;;;;6.00;6.00;;;;;22.81;44.34;102540.50;5035730;28;45308;-78
2022/07/09 01:09:24;;;;;;;;;5.00;5.00;;;;;22.80;44.21;102530.66;5020167;28;45422;-78
2022/07/09 01:11:52;;;;;;;;;6.00;5.67;;;;;22.78;44.45;102529.84;5020575;28;45508;-79
2022/07/09 01:14:19;;;;;;;;;6.33;5.00;;;;;22.76;44.44;102531.66;5020396;28;45251;-78
2022/07/09 01:16:45;;;;;;;;;5.00;5.00;;;;;22.75;44.72;102521.84;5020306;28;45391;-79
2022/07/09 01:19:13;;;;;;;;;4.67;4.67;;;;;22.72;44.54;102519.22;5020150;28;45398;-77
2022/07/09 01:21:44;;;;;;;;;5.33;5.33;;;;;22.73;44.39;102521.00;5016820;28;45423;-77
2022/07/09 01:24:12;;;;;;;;;4.00;4.00;;;;;22.69;44.63;102525.56;5020067;28;45253;-78
2022/07/09 01:26:37;;;;;;;;;4.00;4.00;;;;;22.64;44.72;102517.66;5018997;28;45421;-78
2022/07/09 01:29:02;;;;;;;;;8.33;7.00;;;;;22.58;45.25;102515.09;5019718;28;46103;-78
2022/07/09 01:31:28;;;;;;;;;4.67;4.00;;;;;22.53;44.99;102517.03;5019824;28;45536;-78
2022/07/09 01:33:56;;;;;;;;;6.67;6.67;;;;;22.49;45.20;102511.78;5020142;28;45760;-78
2022/07/09 01:36:21;;;;;;;;;5.33;5.33;;;;;22.36;45.50;102512.09;5019596;28;45465;-78
2022/07/09 01:38:47;;;;;;;;;6.00;6.00;;;;;22.31;45.50;102514.00;5018356;28;48613;-78
2022/07/09 01:41:12;;;;;;;;;6.00;5.67;;;;;22.26;46.29;102507.84;5019774;28;45231;-78
2022/07/09 01:43:38;;;;;;;;;4.33;4.00;;;;;22.27;45.95;102511.44;5019987;28;45248;-79
2022/07/09 01:46:03;;;;;;;;;7.00;7.00;;;;;22.21;46.06;102505.31;5018415;28;45459;-77
2022/07/09 01:48:29;;;;;;;;;6.67;4.67;;;;;22.20;46.01;102516.06;5017460;28;47997;-78
2022/07/09 01:50:59;;;;;;;;;4.00;4.00;;;;;22.16;46.17;102508.97;5016503;28;45250;-78
2022/07/09 01:53:27;;;;;;;;;8.00;7.00;;;;;22.15;46.63;102507.22;5019690;28;45362;-78
2022/07/09 01:55:52;;;;;;;;;8.67;7.33;;;;;22.08;46.29;102492.16;5018232;28;45420;-78
2022/07/09 01:58:18;;;;;;;;;6.00;6.00;;;;;22.06;46.51;102492.22;5019562;28;45378;-78
2022/07/09 02:00:44;;;;;;;;;5.67;5.67;;;;;21.98;46.41;102481.66;5018301;28;45215;-78
2022/07/09 02:03:12;;;;;;;;;8.50;7.00;;;;;22.00;46.54;102476.28;5019927;28;45496;-77
2022/07/09 02:05:40;;;;;;;;;7.00;7.00;;;;;21.98;46.55;102478.97;5018364;28;45450;-78
2022/07/09 02:08:05;;;;;;;;;7.67;6.67;;;;;21.93;46.71;102482.69;5017642;28;47449;-78
2022/07/09 02:10:31;;;;;;;;;8.67;7.67;;;;;21.92;47.18;102483.59;5017943;28;45593;-79
2022/07/09 02:12:59;;;;;;;;;7.00;6.00;;;;;21.87;46.79;102464.97;5018536;28;45202;-77
2022/07/09 02:15:24;;;;;;;;;5.00;5.00;;;;;21.86;47.22;102478.38;5019340;28;45450;-78
2022/07/09 02:17:52;;;;;;;;;6.00;5.00;;;;;21.87;47.11;102481.03;5019355;28;45296;-78
2022/07/09 02:20:22;;;;;;;;;6.00;6.00;;;;;21.86;47.26;102473.03;5016132;28;45493;-77
2022/07/09 02:22:52;;;;;;;;;4.00;4.00;;;;;21.84;47.41;102474.84;5017844;28;45280;-78
2022/07/09 02:25:19;;;;;;;;;7.25;6.25;;;;;21.81;47.49;102462.38;5017773;28;45940;-78
2022/07/09 02:27:45;;;;;;;;;7.33;7.33;;;;;21.87;47.41;102481.03;5010704;28;46587;-78
2022/07/09 02:30:11;;;;;;;;;6.67;5.67;;;;;21.80;47.44;102471.38;5019015;28;45328;-77
2022/07/09 02:32:41;;;;;;;;;5.00;4.00;;;;;21.80;47.30;102468.69;5018160;28;45331;-78
2022/07/09 02:35:08;;;;;;;;;6.33;6.00;;;;;21.82;47.40;102466.84;5006918;28;45363;-80
2022/07/09 02:37:33;;;;;;;;;5.33;5.33;;;;;21.85;47.56;102468.59;5019757;28;47046;-79
2022/07/09 02:40:01;;;;;;;;;5.00;5.00;;;;;21.77;47.70;102466.97;5021106;28;45418;-78
2022/07/09 02:42:29;;;;;;;;;6.67;6.67;;;;;21.79;47.63;102475.84;5022913;28;45368;-78
2022/07/09 02:45:01;;;;;;;;;6.00;6.00;;;;;21.74;47.51;102471.50;5022673;28;45378;-78
2022/07/09 02:47:29;;;;;;;;;8.00;5.33;;;;;21.67;48.07;102462.72;5021042;28;47142;-78
2022/07/09 02:49:57;;;;;;;;;7.33;6.00;;;;;21.67;47.76;102473.44;5019264;28;45237;-79
2022/07/09 02:52:23;;;;;;;;;6.33;5.67;;;;;21.66;47.95;102469.00;5022479;28;45443;-79
2022/07/09 02:54:57;;;;;;;;;9.00;9.00;;;;;21.65;47.96;102471.69;5022313;28;45353;-78
2022/07/09 02:57:22;;;;;;;;;6.33;6.33;;;;;21.59;47.69;102470.91;5022527;28;45454;-79
2022/07/09 02:59:53;;;;;;;;;6.00;5.67;;;;;21.56;48.00;102472.78;5022664;28;45310;-79
2022/07/09 03:02:23;;;;;;;;;7.00;7.00;;;;;21.58;47.92;102477.22;5022600;28;45323;-78
2022/07/09 03:04:48;;;;;;;;;9.00;8.00;;;;;21.58;48.28;102479.00;5021041;28;45541;-79
2022/07/09 03:07:14;;;;;;;;;7.00;7.00;;;;;21.57;47.78;102483.50;5021887;28;45483;-79
2022/07/09 03:09:39;;;;;;;;;7.25;7.25;;;;;21.48;48.08;102470.28;5020622;28;45316;-79
2022/07/09 03:12:10;;;;;;;;;6.67;6.67;;;;;21.47;48.31;102479.25;5038375;28;45423;-79
2022/07/09 03:14:36;;;;;;;;;8.67;7.00;;;;;21.45;48.14;102483.75;5023447;28;45236;-79
2022/07/09 03:17:01;;;;;;;;;5.67;5.67;;;;;21.48;48.44;102493.53;5022667;28;46448;-79
2022/07/09 03:19:29;;;;;;;;;7.33;6.67;;;;;21.46;48.02;102488.19;5022303;28;45316;-80
2022/07/09 03:21:57;;;;;;;;;7.67;7.67;;;;;21.36;48.46;102474.09;5021860;28;45326;-79
2022/07/09 03:24:22;;;;;;;;;7.33;7.00;;;;;21.39;48.56;102481.22;5037833;28;45266;-78
2022/07/09 03:26:48;;;;;;;;;5.25;5.25;;;;;21.32;48.67;102477.72;5021311;28;47030;-79
2022/07/09 03:29:16;;;;;;;;;7.75;7.75;;;;;21.30;48.65;102476.91;5020605;28;45345;-78
2022/07/09 03:31:44;;;;;;;;;6.00;5.00;;;;;21.30;49.05;102481.34;5020862;28;45229;-79
2022/07/09 03:34:09;;;;;;;;;8.75;7.25;;;;;21.27;48.92;102481.41;5020310;28;46350;-79
2022/07/09 03:36:37;;;;;;;;;6.67;5.67;;;;;21.26;49.00;102477.00;5021497;28;46085;-79
2022/07/09 03:39:05;;;;;;;;;6.00;6.00;;;;;21.29;48.95;102483.16;5020287;28;45686;-79
2022/07/09 03:41:32;;;;;;;;;7.75;7.75;;;;;21.23;48.65;102471.69;5022023;28;45367;-79
2022/07/09 03:44:00;;;;;;;;;8.00;8.00;;;;;21.24;48.76;102487.72;5021506;28;45517;-78
2022/07/09 03:46:33;;;;;;;;;10.50;9.25;;;;;21.27;48.85;102498.38;5036759;28;47117;-79
2022/07/09 03:48:58;;;;;;;;;10.75;10.75;;;;;21.24;49.06;102505.59;5018371;28;45331;-79
2022/07/09 03:51:24;;;;;;;;;10.67;9.67;;;;;21.15;48.82;102495.97;5020410;28;45427;-78
2022/07/09 03:53:54;;;;;;;;;7.75;7.75;;;;;21.11;48.98;102484.41;5021537;28;45433;-79
2022/07/09 03:56:22;;;;;;;;;10.00;8.00;;;;;21.10;49.20;102496.03;5020115;28;46094;-79
2022/07/09 03:58:51;;;;;;;;;7.33;7.00;;;;;21.09;49.11;102515.72;5021349;28;45469;-78
2022/07/09 04:01:16;;;;;;;;;9.33;9.33;;;;;20.99;49.62;102503.41;5021829;28;45307;-78
2022/07/09 04:03:45;;;;;;;;;10.33;10.33;;;;;20.96;49.55;102511.50;5019387;28;45599;-78
2022/07/09 04:06:10;;;;;;;;;10.33;9.00;;;;;20.98;49.62;102509.66;5019990;28;47948;-77
2022/07/09 04:08:36;;;;;;;;;9.00;8.00;;;;;20.91;49.56;102508.91;5020851;28;45153;-78
2022/07/09 04:11:03;;;;;;;;;10.00;8.67;;;;;20.93;49.61;102512.44;5020229;28;45212;-78
2022/07/09 04:13:31;;;;;;;;;8.75;8.75;;;;;20.86;49.52;102496.50;5019878;28;45725;-78
2022/07/09 04:15:56;;;;;;;;;12.67;9.00;;;;;20.79;49.72;102493.06;5021306;28;45536;-77
2022/07/09 04:18:21;;;;;;;;;8.00;8.00;;;;;20.80;49.73;102507.34;5021046;28;45294;-77
2022/07/09 04:20:47;;;;;;;;;9.00;9.00;;;;;20.86;49.71;102517.94;5018667;28;45333;-77
2022/07/09 04:23:20;;;;;;;;;9.33;9.33;;;;;20.86;50.07;102513.44;5019429;28;46483;-78
2022/07/09 04:25:47;;;;;;;;;11.25;9.75;;;;;20.80;50.30;102500.19;5019537;28;47457;-77
2022/07/09 04:28:15;;;;;;;;;13.50;12.25;;;;;20.78;50.17;102502.00;5020807;28;45176;-78
2022/07/09 04:30:43;;;;;;;;;9.50;8.50;;;;;20.75;49.87;102502.06;5021024;28;45213;-78
2022/07/09 04:33:11;;;;;;;;;12.33;9.33;;;;;20.81;50.04;102515.31;5019459;28;45767;-78
2022/07/09 04:35:39;;;;;;;;;9.75;8.50;;;;;20.79;50.32;102501.09;5020554;28;46232;-78
2022/07/09 04:38:04;;;;;;;;;11.75;11.75;;;;;20.76;50.36;102490.44;5019026;28;45262;-78
2022/07/09 04:40:30;;;;;;;;;11.25;10.50;;;;;20.82;50.41;102497.47;5019522;28;45379;-78
2022/07/09 04:42:58;;;;;;;;;8.50;8.50;;;;;20.80;50.34;102494.84;5020795;28;45245;-78
2022/07/09 04:45:31;;;;;;;;;9.00;9.00;;;;;20.88;50.30;102502.72;5020787;28;46156;-77
2022/07/09 04:47:58;;;;;;;;;11.50;9.50;;;;;20.86;50.00;102504.53;5020849;28;45343;-77
2022/07/09 04:50:24;;;;;;;;;9.75;9.25;;;;;20.83;50.21;102508.16;5035868;28;45356;-78
2022/07/09 04:52:54;;;;;;;;;10.50;8.75;;;;;20.80;50.05;102502.00;5020233;28;45512;-77
2022/07/09 04:55:22;;;;;;;;;10.50;10.00;;;;;20.77;50.37;102505.59;5020597;28;45218;-78
2022/07/09 04:57:50;;;;;;;;;11.75;11.00;;;;;20.79;50.23;102519.81;5020221;28;45336;-77
2022/07/09 05:00:16;;;;;;;;;10.00;10.00;;;;;20.74;50.30;102510.97;5020438;28;45358;-78
2022/07/09 05:02:45;;;;;;;;;11.00;11.00;;;;;20.74;50.54;102520.81;5018972;28;45268;-77
2022/07/09 05:05:11;;;;;;;;;13.25;10.25;;;;;20.64;50.38;102504.06;5018922;28;46792;-77
2022/07/09 05:07:37;;;;;;;;;11.50;10.50;;;;;20.65;50.19;102508.50;5019927;28;46050;-78
2022/07/09 05:10:03;;;;;;;;;12.50;11.25;;;;;20.66;51.05;102515.59;5020270;28;45263;-78
2022/07/09 05:12:33;;;;;;;;;9.75;9.75;;;;;20.63;50.88;102519.19;5020472;28;45498;-78
2022/07/09 05:15:01;;;;;;;;;12.25;11.75;;;;;20.58;50.88;102521.09;5020059;28;46409;-77
2022/07/09 05:17:36;;;;;;;;;10.00;10.00;;;;;20.54;51.23;102510.47;5020356;28;45430;-78
2022/07/09 05:20:10;;;;;;;;;9.50;9.50;;;;;20.53;51.17;102512.25;5019919;28;45378;-77
2022/07/09 05:22:37;;;;;;;;;11.75;11.75;;;;;20.59;50.82;102520.19;5019752;28;45467;-78
2022/07/09 05:25:04;;;;;;;;;12.00;11.50;;;;;20.50;51.12;102512.25;5020143;28;45486;-77
2022/07/09 05:27:31;;;;;;;;;5.00;5.00;;;;;20.54;51.42;102522.06;5020054;28;45417;-78
2022/07/09 05:29:59;;;;;;;;;11.50;10.25;;;;;20.60;51.36;102521.94;5019865;28;45179;-78
2022/07/09 05:32:28;;;;;;;;;12.25;12.25;;;;;20.57;51.39;102513.09;5018786;28;45242;-78
2022/07/09 05:35:01;;;;;;;;;11.00;11.00;;;;;20.53;50.78;102517.59;5018538;28;47848;-78
2022/07/09 05:37:29;;;;;;;;;13.25;12.00;;;;;20.57;50.80;102518.44;5022102;28;45461;-78
2022/07/09 05:40:07;;;;;;;;;;;;;;;;;;;;;
2022/07/09 05:42:32;;;;;;;;;13.50;12.75;;;;;20.58;51.25;102513.06;5021838;28;72822;-77
2022/07/09 05:44:58;;;;;;;;;12.00;11.75;;;;;20.53;50.97;102496.19;5019681;28;46236;-77
2022/07/09 05:47:24;;;;;;;;;9.50;9.50;;;;;20.59;51.16;102497.91;5018606;28;45796;-78
2022/07/09 05:49:49;;;;;;;;;12.50;12.50;;;;;;;;5015883;28;45484;-78
2022/07/09 05:52:20;;;;;;;;;15.75;13.50;;;;;20.74;51.44;102510.09;5019663;28;45336;-78
2022/07/09 05:54:48;;;;;;;;;14.75;12.50;;;;;20.64;50.79;102496.03;5018118;28;47187;-78
2022/07/09 05:57:13;;;;;;;;;14.00;14.00;;;;;20.76;50.71;102510.97;5018009;28;45298;-78
2022/07/09 05:59:38;;;;;;;;;16.25;15.50;;;;;20.72;51.36;102509.28;5018431;28;45294;-78
2022/07/09 06:02:05;;;;;;;;;12.50;11.50;;;;;20.83;51.26;102523.34;5018260;28;45274;-77
2022/07/09 06:04:33;;;;;;;;;12.25;12.25;;;;;20.84;51.05;102512.59;5019177;28;45449;-78
2022/07/09 06:06:58;;;;;;;;;14.50;11.75;;;;;20.88;50.95;102514.31;5019279;28;45453;-78
2022/07/09 06:09:29;;;;;;;;;11.00;11.00;;;;;20.87;51.04;102506.28;5019398;28;45359;-79
2022/07/09 06:11:56;;;;;;;;;16.50;14.50;;;;;20.93;50.63;102512.44;5020893;28;45600;-79
2022/07/09 06:14:24;;;;;;;;;13.00;13.00;;;;;20.98;50.65;102514.13;5021459;28;45576;-78
2022/07/09 06:16:49;;;;;;;;;10.75;10.75;;;;;20.97;50.85;102505.22;5022856;28;45328;-78
2022/07/09 06:19:17;;;;;;;;;11.75;11.75;;;;;21.00;50.71;102506.97;5021685;28;45473;-79
2022/07/09 06:21:42;;;;;;;;;10.75;10.75;;;;;21.04;50.34;102504.19;5019741;28;45592;-78
2022/07/09 06:24:08;;;;;;;;;10.75;10.75;;;;;21.06;50.53;102514.88;5021163;28;48256;-79
2022/07/09 06:26:33;;;;;;;;;13.25;11.25;;;;;21.10;50.53;102514.78;5022731;28;45303;-78
2022/07/09 06:29:00;;;;;;;;;13.50;12.50;;;;;21.14;50.32;102511.16;5031245;28;45492;-78
2022/07/09 06:31:25;;;;;;;;;11.25;11.25;;;;;21.18;50.75;102520.00;5021616;28;45253;-78
2022/07/09 06:33:54;;;;;;;;;13.00;12.00;;;;;21.16;50.73;102505.75;5022680;28;46520;-79
2022/07/09 06:36:19;;;;;;;;;11.25;11.25;;;;;21.23;50.63;102510.06;5021118;28;45413;-79
2022/07/09 06:41:28;;;;;;;;;11.50;10.25;;;;;21.29;50.50;102515.31;5009474;28;45549;-77
2022/07/09 06:43:54;;;;;;;;;10.50;10.50;;;;;21.27;50.69;102509.09;5022113;28;46099;-78
2022/07/09 06:46:19;;;;;;;;;10.33;10.33;;;;;21.35;50.41;102512.50;5022614;28;45426;-77
2022/07/09 06:48:47;;;;;;;;;19.00;13.25;;;;;21.42;50.58;102512.41;5017913;28;46008;-77
2022/07/09 06:51:14;;;;;;;;;33.50;31.75;;;;;21.50;50.58;102513.16;5022397;28;45267;-77
2022/07/09 06:53:43;;;;;;;;;21.00;19.25;;;;;21.52;50.21;102514.00;5021610;28;45356;-78
2022/07/09 06:56:08;;;;;;;;;14.75;14.25;;;;;21.55;50.29;102511.25;5017152;28;45414;-77
2022/07/09 06:58:34;;;;;;;;;11.75;11.75;;;;;21.61;50.05;102510.22;5014500;28;45346;-77
2022/07/09 07:00:59;;;;;;;;;12.25;11.00;;;;;21.65;49.97;102504.78;5021881;28;45669;-77
2022/07/09 07:03:24;;;;;;;;;11.33;8.67;;;;;21.73;49.68;102502.81;5021932;28;45953;-77
2022/07/09 07:05:50;;;;;;;;;10.00;10.00;;;;;21.83;50.12;102508.84;5021685;28;45307;-77
2022/07/09 07:08:22;;;;;;;;;11.75;11.75;;;;;21.92;49.66;102505.97;5036945;28;45371;-77
2022/07/09 07:10:50;;;;;;;;;11.25;11.25;;;;;21.98;49.69;102516.53;5009133;28;45348;-77
2022/07/09 07:13:18;;;;;;;;;9.50;9.50;;;;;22.00;49.40;102506.66;5021471;28;46327;-79
2022/07/09 07:15:44;;;;;;;;;9.33;9.33;;;;;22.06;49.33;102504.75;5020482;28;45352;-77
2022/07/09 07:18:10;;;;;;;;;9.00;9.00;;;;;22.14;49.28;102508.13;5020040;28;45284;-79
2022/07/09 07:20:36;;;;;;;;;9.67;8.67;;;;;22.20;49.17;102514.25;5015432;28;45241;-78
2022/07/09 07:23:08;;;;;;;;;9.67;8.33;;;;;22.28;49.40;102513.19;5007347;28;46490;-79
2022/07/09 07:25:33;;;;;;;;;9.00;8.33;;;;;22.30;49.37;102506.00;5021533;28;45189;-78
2022/07/09 07:28:02;;;;;;;;;11.33;10.33;;;;;22.37;48.74;102508.50;5021239;28;45233;-78
2022/07/09 07:30:27;;;;;;;;;14.00;13.50;;;;;22.47;48.54;102506.44;5021053;28;45530;-78
2022/07/09 07:32:53;;;;;;;;;15.75;13.75;;;;;22.55;48.57;102503.56;5019667;28;47002;-78
2022/07/09 07:35:23;;;;;;;;;15.25;13.25;;;;;22.60;48.16;102505.22;5020871;28;45338;-79
2022/07/09 07:37:58;;;;;;;;;8.67;8.67;;;;;22.68;48.50;102505.00;5019584;28;45466;-78
2022/07/09 07:40:26;;;;;;;;;9.00;8.67;;;;;22.77;48.27;102507.44;5021154;28;45354;-78
2022/07/09 07:42:54;;;;;;;;;9.00;9.00;;;;;22.88;47.84;102516.13;5021098;28;45291;-79
2022/07/09 07:45:19;;;;;;;;;8.00;7.00;;;;;22.93;47.58;102507.91;5019734;28;45436;-78
2022/07/09 07:47:45;;;;;;;;;11.00;10.00;;;;;23.04;47.78;102507.66;5021048;28;45460;-78
2022/07/09 07:50:16;;;;;;;;;9.67;8.67;;;;;23.15;47.74;102518.09;5019582;28;45504;-79
2022/07/09 07:52:43;;;;;;;;;10.33;9.00;;;;;23.20;47.53;102516.16;5020555;28;45305;-78
2022/07/09 07:55:08;;;;;;;;;9.00;9.00;;;;;23.26;47.09;102508.84;5019617;28;45408;-80
2022/07/09 07:57:39;;;;;;;;;8.67;8.33;;;;;23.30;46.88;102499.72;5021195;28;45609;-80
2022/07/09 08:00:10;;;;;;;;;8.33;8.00;;;;;23.39;46.52;102506.69;5021435;28;45307;-80
2022/07/09 08:02:38;;;;;;;;;11.67;10.00;;;;;23.49;46.73;102509.94;5019171;28;46217;-79
2022/07/09 08:05:04;;;;;;;;;9.00;9.00;;;;;23.55;46.52;102505.28;5020941;28;45352;-78
2022/07/09 08:07:32;;;;;;;;;7.00;7.00;;;;;23.62;46.70;102503.28;5019067;28;45315;-77
2022/07/09 08:09:57;;;;;;;;;6.00;6.00;;;;;23.70;46.24;102508.44;5020445;28;45323;-77
2022/07/09 08:12:23;;;;;;;;;9.00;8.67;;;;;23.76;46.34;102501.09;5020311;28;45482;-75
2022/07/09 08:14:53;;;;;;;;;9.00;9.00;;;;;23.82;45.52;102494.66;5035894;28;45506;-77
2022/07/09 08:17:26;;;;;;;;;9.33;9.33;;;;;23.90;45.91;102506.06;5007951;28;45287;-76
2022/07/09 08:19:51;;;;;;;;;8.33;8.33;;;;;24.01;45.73;102497.63;5017625;28;45265;-76
2022/07/09 08:22:19;;;;;;;;;7.33;7.00;;;;;24.08;45.35;102495.63;5020369;28;45555;-76
2022/07/09 08:24:47;;;;;;;;;8.00;8.00;;;;;24.18;45.24;102486.31;5019353;28;45387;-78
2022/07/09 08:27:15;;;;;;;;;6.33;5.67;;;;;24.28;45.02;102490.47;5019145;28;45360;-78
2022/07/09 08:29:40;;;;;;;;;5.67;5.67;;;;;24.35;45.02;102494.72;5020352;28;45531;-78
2022/07/09 08:32:06;;;;;;;;;7.00;6.00;;;;;24.48;44.64;102488.94;5020183;28;45534;-78
2022/07/09 08:34:31;;;;;;;;;9.00;8.00;;;;;24.58;44.39;102491.25;5019729;28;45362;-78
2022/07/09 08:36:59;;;;;;;;;9.33;7.00;;;;;24.73;44.60;102489.00;5020431;28;45165;-77
2022/07/09 08:39:24;;;;;;;;;8.00;8.00;;;;;24.81;43.90;102490.47;5019873;28;45458;-78
2022/07/09 08:41:52;;;;;;;;;12.33;9.67;;;;;24.86;43.44;102482.22;5020104;28;46487;-78
2022/07/09 08:44:23;;;;;;;;;8.00;8.00;;;;;24.93;43.44;102485.56;5019943;28;45469;-78
2022/07/09 08:46:51;;;;;;;;;6.67;6.67;;;;;25.02;43.18;102494.22;5020286;28;45321;-78
2022/07/09 08:49:17;;;;;;;;;9.00;9.00;;;;;25.06;43.27;102487.75;5016362;28;45433;-79
2022/07/09 08:51:44;;;;;;;;;10.33;8.00;;;;;25.12;43.19;102486.66;5019902;28;46843;-77
2022/07/09 08:54:10;;;;;;;;;9.00;7.00;;;;;25.16;42.73;102477.56;5019746;28;45452;-78
2022/07/09 08:56:36;;;;;;;;;6.67;5.67;;;;;25.20;42.83;102465.72;5018636;28;45451;-78
2022/07/09 08:59:01;;;;;;;;;6.33;6.33;;;;;25.24;42.48;102464.66;5018724;28;46157;-78
2022/07/09 09:01:29;;;;;;;;;7.00;7.00;;;;;25.34;42.63;102467.91;5020089;28;45307;-78
2022/07/09 09:03:54;;;;;;;;;5.67;5.67;;;;;25.40;42.45;102464.09;5019876;28;45251;-79
2022/07/09 09:06:24;;;;;;;;;6.67;5.33;;;;;25.46;41.69;102463.84;5019848;28;45236;-78
2022/07/09 09:08:58;;;;;;;;;5.33;5.00;;;;;25.51;41.59;102467.25;5019392;28;45738;-78
2022/07/09 09:11:25;;;;;;;;;4.00;4.00;;;;;25.55;41.78;102463.47;5019484;28;45548;-78
2022/07/09 09:13:54;;;;;;;;;5.00;4.00;;;;;25.59;41.31;102466.94;5019305;28;45460;-78
2022/07/09 09:16:41;;;;;;;;;4.67;4.67;;;;;25.65;41.07;102461.31;5019610;28;45303;-78
2022/07/09 09:19:08;;;;;;;;;6.00;6.00;;;;;25.67;40.93;102454.03;5008540;28;45416;-78
2022/07/09 09:21:37;;;;;;;;;5.67;5.67;;;;;25.71;40.83;102453.84;5017138;28;46227;-78
2022/07/09 09:24:03;;;;;;;;;5.33;4.67;;;;;25.77;40.94;102460.81;5019337;28;45279;-78
2022/07/09 09:26:33;;;;;;;;;3.00;3.00;;;;;25.82;40.59;102452.53;5019250;28;45274;-78
2022/07/09 09:29:01;;;;;;;;;7.00;4.67;;;;;25.87;40.70;102448.72;5019225;28;45475;-78
2022/07/09 09:31:35;;;;;;;;;5.33;4.33;;;;;25.99;40.58;102455.47;5019009;28;45371;-78
2022/07/09 09:34:06;;;;;;;;;5.00;5.00;;;;;26.05;40.38;102454.31;5019156;28;45404;-77
2022/07/09 09:36:40;;;;;;;;;6.33;5.00;;;;;26.10;40.29;102455.88;5019227;28;45438;-77
2022/07/09 09:39:26;;;;;;;;;6.33;5.33;;;;;26.13;40.57;102450.34;5019119;28;45173;-77
2022/07/09 09:42:02;;;;;;;;;4.67;4.00;;;;;26.22;40.30;102454.47;5019342;28;45391;-77
2022/07/09 09:44:30;;;;;;;;;5.67;5.00;;;;;26.33;40.02;102451.31;5019021;28;45449;-77
2022/07/09 09:47:00;;;;;;;;;4.67;4.67;;;;;26.38;40.42;102446.59;5017972;28;45430;-78
2022/07/09 09:49:28;;;;;;;;;7.67;5.67;;;;;26.49;40.17;102447.03;5015881;28;45506;-78
2022/07/09 09:51:53;;;;;;;;;7.00;6.00;;;;;26.59;39.89;102461.91;5018514;28;46595;-77
2022/07/09 09:54:20;;;;;;;;;5.00;5.00;;;;;26.63;39.66;102448.28;5016110;28;45402;-77
2022/07/09 09:56:49;;;;;;;;;4.00;4.00;;;;;26.67;39.67;102456.16;5009750;28;45427;-77
2022/07/09 09:59:15;;;;;;;;;5.00;5.00;;;;;26.72;39.76;102455.97;5016617;28;45372;-77
2022/07/09 10:01:52;;;;;;;;;5.00;5.00;;;;;26.81;39.41;102444.75;5017029;28;47590;-77
2022/07/09 10:04:18;;;;;;;;;2.00;2.00;;;;;26.92;39.01;102445.16;5018105;28;45447;-77
2022/07/09 10:06:46;;;;;;;;;5.00;4.67;;;;;27.03;38.97;102464.47;5016382;28;45534;-77
2022/07/09 10:09:13;;;;;;;;;4.00;4.00;;;;;27.08;38.16;102448.03;5003460;28;45491;-78
2022/07/09 10:11:42;;;;;;;;;7.00;5.00;;;;;27.14;38.53;102449.59;5017574;28;46280;-78
2022/07/09 10:14:14;;;;;;;;;5.00;3.67;;;;;27.21;37.72;102443.84;5018153;28;45522;-80
2022/07/09 10:16:43;;;;;;;;;5.33;4.67;;;;;27.31;38.49;102449.69;5018364;28;45374;-79
2022/07/09 10:19:08;;;;;;;;;4.33;4.33;;;;;27.40;38.11;102443.88;5033144;28;45578;-78
2022/07/09 10:21:39;;;;;;;;;4.33;4.33;;;;;27.51;38.10;102440.63;5014973;28;45678;-79
2022/07/09 10:24:11;;;;;;;;;2.33;2.33;;;;;27.63;37.70;102433.75;5016862;28;45250;-79
2022/07/09 10:26:38;;;;;;;;;6.00;4.67;;;;;27.78;37.61;102442.97;5016994;28;45470;-79
2022/07/09 10:29:39;;;;;;;;;7.00;7.00;;;;;27.88;37.32;102436.16;5018422;28;45460;-79
2022/07/09 10:32:07;;;;;;;;;5.33;5.33;;;;;28.10;37.01;102436.84;5021655;28;47443;-79
2022/07/09 10:35:25;;;;;;;;;3.33;3.00;;;;;28.26;36.88;102431.53;5018033;28;45310;-78
2022/07/09 10:37:53;;;;;;;;;5.33;5.33;;;;;28.42;36.45;102425.31;5012683;28;45404;-78
2022/07/09 10:40:19;;;;;;;;;4.00;4.00;;;;;28.60;36.29;102432.47;5016629;28;45323;-79
2022/07/09 10:42:58;;;;;;;;;5.00;5.00;;;;;28.75;35.74;102412.69;5018231;28;45538;-77
2022/07/09 10:45:31;;;;;;;;;6.00;6.00;;;;;29.01;35.71;102421.25;5017015;28;45404;-77
2022/07/09 10:48:06;;;;;;;;;6.33;6.33;;;;;29.26;35.35;102422.63;5004019;28;45267;-78
2022/07/09 10:50:36;;;;;;;;;5.00;5.00;;;;;29.45;35.19;102429.63;5015508;28;45411;-78
2022/07/09 10:53:06;;;;;;;;;6.00;4.00;;;;;29.50;34.55;102414.94;5016633;28;46332;-79
2022/07/09 10:55:31;;;;;;;;;6.00;6.00;;;;;29.57;34.03;102421.78;5016515;28;45431;-78
2022/07/09 10:57:57;;;;;;;;;3.67;3.67;;;;;29.56;34.54;102409.16;5019311;28;45293;-77
2022/07/09 11:00:27;;;;;;;;;4.00;4.00;;;;;29.50;34.65;102404.97;5021697;28;45410;-77
2022/07/09 11:03:05;;;;;;;;;11.00;11.00;;;;;29.61;34.17;102405.22;5020343;28;47530;-79
2022/07/09 11:05:33;;;;;;;;;7.33;7.00;;;;;29.72;33.63;102395.59;5021465;28;45405;-77
2022/07/09 11:08:03;;;;;;;;;6.00;6.00;;;;;29.84;33.74;102400.34;5021631;28;45346;-77
2022/07/09 11:10:34;;;;;;;;;7.00;6.67;;;;;30.02;33.95;102393.81;5020270;28;45541;-77
2022/07/09 11:13:02;;;;;;;;;7.00;6.33;;;;;30.26;33.63;102396.03;5020186;28;46141;-77
2022/07/09 11:15:30;;;;;;;;;6.00;6.00;;;;;30.41;32.81;102389.66;5019760;28;45399;-78
2022/07/09 11:17:59;;;;;;;;;5.00;5.00;;;;;30.35;32.59;102397.34;5036750;28;45367;-78
2022/07/09 11:20:26;;;;;;;;;6.00;6.00;;;;;30.17;32.94;102389.28;5020517;28;45610;-78
2022/07/09 11:22:52;;;;;;;;;5.00;5.00;;;;;30.04;32.58;102386.41;5020849;28;46163;-78
2022/07/09 11:25:20;;;;;;;;;6.00;6.00;;;;;29.88;32.63;102388.31;5019759;28;45392;-78
2022/07/09 11:27:47;;;;;;;;;8.00;7.67;;;;;29.70;32.62;102392.09;5019873;28;45397;-78
2022/07/09 11:30:17;;;;;;;;;5.67;5.67;;;;;29.69;33.04;102380.38;5021274;28;45247;-78